LKPR/PRG METAR and TAF weather

Enter ICAO airport designator
Station Type Date Time Source
LKPR METAR 2019/02/17 15:30 UTC NOAA

LKPR 171530Z 02004KT 7000 NSC 08/01 Q1024 NOSIG


Station Type Date Time Source
LKPR Decoded METAR 2019/02/17 15:30 UTC NOAA

Praha / Ruzyne, Czech Republic (LKPR) 50-06N 014-15E 365M
Feb 17, 2019 - 10:30 AM EST / 2019.02.17 1530 UTC
Wind: from the NNE (020 degrees) at 5 MPH (4 KT):0
Visibility: 4 mile(s):0
Temperature: 46 F (8 C)
Dew Point: 33 F (1 C)
Relative Humidity: 61%
Pressure (altimeter): 30.24 in. Hg (1024 hPa)
ob: LKPR 171530Z 02004KT 7000 NSC 08/01 Q1024 NOSIG
cycle: 15

Station Type Date Time Source
LKPR TAF 2019/02/17 12:11 UTC NOAA

TAF LKPR 171100Z 1712/1818 22004KT CAVOK
BECMG 1715/1717 VRB02KT PROB30
TEMPO 1802/1809 VRB02KT 2000 MIFG NSC


Example: see airport list